createdAt,value
2022-12-25T00:00:20.738Z,5.12
2022-12-25T00:05:22.931Z,5.17
2022-12-25T00:10:28.106Z,5.22
2022-12-25T00:15:36.860Z,5.24
2022-12-25T00:20:38.749Z,5.29
2022-12-25T00:25:44.505Z,5.33
2022-12-25T00:30:46.267Z,5.34
2022-12-25T00:35:58.996Z,5.34
2022-12-25T00:41:07.256Z,5.35
2022-12-25T00:46:13.310Z,5.31
2022-12-25T00:51:17.626Z,5.31
2022-12-25T00:56:21.891Z,5.29
2022-12-25T01:01:25.739Z,5.27
2022-12-25T01:06:27.849Z,5.27
2022-12-25T01:11:33.830Z,5.24
2022-12-25T01:16:36.046Z,5.18
2022-12-25T01:21:38.006Z,5.08
2022-12-25T01:26:39.802Z,5.05
2022-12-25T01:31:41.905Z,4.95
2022-12-25T01:36:45.946Z,4.92
2022-12-25T01:41:52.293Z,4.89
2022-12-25T01:46:56.231Z,4.83
2022-12-25T01:52:23.918Z,4.77
2022-12-25T01:57:29.289Z,4.73
2022-12-25T02:02:33.721Z,4.67
2022-12-25T02:07:51.076Z,4.62
2022-12-25T02:13:00.098Z,4.60
2022-12-25T02:18:32.611Z,4.58
2022-12-25T02:23:49.570Z,4.54
2022-12-25T02:28:54.071Z,4.55
2022-12-25T02:34:17.258Z,4.56
2022-12-25T02:39:50.868Z,4.58
2022-12-25T02:45:11.784Z,4.57
2022-12-25T02:50:40.871Z,4.56
2022-12-25T02:56:05.413Z,4.49
2022-12-25T03:01:32.015Z,4.42
2022-12-25T03:06:46.663Z,4.40
2022-12-25T03:11:58.605Z,4.34
2022-12-25T03:17:01.470Z,4.31
2022-12-25T03:22:26.290Z,4.28
2022-12-25T03:27:32.247Z,4.19
2022-12-25T03:32:51.754Z,4.12
2022-12-25T03:38:40.141Z,4.08
2022-12-25T03:44:32.842Z,4.03
2022-12-25T03:50:03.833Z,3.99
2022-12-25T03:55:28.767Z,3.96
2022-12-25T04:01:03.612Z,3.92
2022-12-25T04:06:25.846Z,3.89
2022-12-25T04:11:46.100Z,3.91
2022-12-25T04:17:06.510Z,4.01
2022-12-25T04:22:28.553Z,4.09
2022-12-25T04:27:50.628Z,4.18
2022-12-25T04:33:15.865Z,4.27
2022-12-25T04:38:20.853Z,4.30
2022-12-25T04:43:25.097Z,4.33
2022-12-25T04:48:31.414Z,4.33
2022-12-25T04:53:33.121Z,4.33
2022-12-25T04:58:34.829Z,4.37
2022-12-25T05:03:39.723Z,4.41
2022-12-25T05:08:41.572Z,4.45
2022-12-25T05:13:43.249Z,4.48
2022-12-25T05:18:45.283Z,4.94
2022-12-25T05:23:53.367Z,4.86
2022-12-25T05:28:55.417Z,4.87
2022-12-25T05:33:59.436Z,4.97
2022-12-25T05:39:01.191Z,5.13
2022-12-25T05:44:09.604Z,5.26
2022-12-25T05:49:11.355Z,5.35
2022-12-25T05:54:13.045Z,5.40
2022-12-25T05:59:21.458Z,5.48
2022-12-25T06:04:26.665Z,5.54
2022-12-25T06:09:30.730Z,5.61
2022-12-25T06:14:33.744Z,5.69
2022-12-25T06:19:38.122Z,5.74
2022-12-25T06:24:42.189Z,5.80
2022-12-25T06:29:43.934Z,5.84
2022-12-25T06:34:48.798Z,5.90
2022-12-25T06:39:50.715Z,5.97
2022-12-25T06:44:57.900Z,6.07
2022-12-25T06:50:05.768Z,6.15
2022-12-25T06:55:09.926Z,6.24
2022-12-25T07:00:14.379Z,6.28
2022-12-25T07:05:16.382Z,6.32
2022-12-25T07:10:18.109Z,6.39
2022-12-25T07:15:19.816Z,6.43
2022-12-25T07:20:21.823Z,6.45
2022-12-25T07:25:30.840Z,6.49
2022-12-25T07:30:38.128Z,6.54
2022-12-25T07:35:41.310Z,6.55
2022-12-25T07:40:46.034Z,6.56
2022-12-25T07:45:48.108Z,6.59
2022-12-25T07:50:55.987Z,6.62
2022-12-25T07:56:03.240Z,6.66
2022-12-25T08:01:11.835Z,6.69
2022-12-25T08:06:17.369Z,6.75
2022-12-25T08:11:22.983Z,6.84
2022-12-25T08:16:27.657Z,6.86
2022-12-25T08:21:29.590Z,6.87
2022-12-25T08:26:39.290Z,6.89
2022-12-25T08:31:46.133Z,6.93
2022-12-25T08:36:48.472Z,6.96
2022-12-25T08:41:50.173Z,6.99
2022-12-25T08:46:51.851Z,7.02
2022-12-25T08:51:58.313Z,7.06
2022-12-25T08:57:03.205Z,7.09
2022-12-25T09:02:05.547Z,7.09
2022-12-25T09:07:07.390Z,7.13
2022-12-25T09:12:10.087Z,7.13
2022-12-25T09:17:11.961Z,7.16
2022-12-25T09:22:19.315Z,7.23
2022-12-25T09:27:21.015Z,7.24
2022-12-25T09:32:22.821Z,7.21
2022-12-25T09:37:24.783Z,7.20
2022-12-25T09:42:31.292Z,7.21
2022-12-25T09:47:35.977Z,7.23
2022-12-25T09:53:17.380Z,7.28
2022-12-25T09:58:19.116Z,7.30
2022-12-25T10:04:02.680Z,7.33
2022-12-25T10:09:10.321Z,7.35
2022-12-25T10:14:33.956Z,7.35
2022-12-25T10:19:41.585Z,7.35
2022-12-25T10:24:56.042Z,7.37
2022-12-25T10:29:58.759Z,7.38
2022-12-25T10:35:01.485Z,7.40
2022-12-25T10:40:04.159Z,7.42
2022-12-25T10:45:08.143Z,7.45
2022-12-25T10:50:22.446Z,7.43
2022-12-25T10:55:28.999Z,7.39
2022-12-25T11:00:32.780Z,7.33
2022-12-25T11:05:36.487Z,7.35
2022-12-25T11:10:56.404Z,7.38
2022-12-25T11:16:28.459Z,7.48
2022-12-25T11:21:30.356Z,7.46
2022-12-25T11:26:37.304Z,7.48
2022-12-25T11:31:43.396Z,7.50
2022-12-25T11:36:51.593Z,7.51
2022-12-25T11:42:14.942Z,7.54
2022-12-25T11:47:54.210Z,7.55
2022-12-25T11:53:03.735Z,7.63
2022-12-25T11:58:31.802Z,7.69
2022-12-25T12:03:39.976Z,7.72
2022-12-25T12:08:44.427Z,7.72
2022-12-25T12:14:29.614Z,7.72
2022-12-25T12:19:31.819Z,7.73
2022-12-25T12:24:45.657Z,7.77
2022-12-25T12:29:52.874Z,7.73
2022-12-25T12:34:55.117Z,7.66
2022-12-25T12:39:57.285Z,7.55
2022-12-25T12:45:32.259Z,7.48
2022-12-25T12:50:42.903Z,7.40
2022-12-25T12:55:44.958Z,7.34
2022-12-25T13:00:52.718Z,7.32
2022-12-25T13:06:23.845Z,7.29
2022-12-25T13:11:32.868Z,7.23
2022-12-25T13:16:42.601Z,7.20
2022-12-25T13:21:53.359Z,7.17
2022-12-25T13:26:57.541Z,7.14
2022-12-25T13:32:00.767Z,7.14
2022-12-25T13:37:17.008Z,7.16
2022-12-25T13:42:21.136Z,7.19
2022-12-25T13:47:29.703Z,7.21
2022-12-25T13:52:36.550Z,7.23
2022-12-25T13:57:44.991Z,7.25
2022-12-25T14:02:48.229Z,7.26
2022-12-25T14:07:54.884Z,7.28
2022-12-25T14:13:02.916Z,7.31
2022-12-25T14:18:06.433Z,7.32
2022-12-25T14:23:14.956Z,7.34
2022-12-25T14:28:22.191Z,7.35
2022-12-25T14:33:26.720Z,7.31
2022-12-25T14:38:35.044Z,7.34
2022-12-25T14:43:36.820Z,7.25
2022-12-25T14:48:38.538Z,7.18
2022-12-25T14:53:51.962Z,7.12
2022-12-25T14:58:57.869Z,7.09
2022-12-25T15:04:08.606Z,7.07
2022-12-25T15:09:15.949Z,7.07
2022-12-25T15:14:17.776Z,7.06
2022-12-25T15:19:28.277Z,7.04
2022-12-25T15:24:32.257Z,7.04
2022-12-25T15:30:08.590Z,7.08
2022-12-25T15:35:01.181Z,7.10
2022-12-25T15:40:06.911Z,7.10
2022-12-25T15:45:26.440Z,7.09
2022-12-25T15:50:32.618Z,7.07
2022-12-25T15:55:36.647Z,7.06
2022-12-25T16:00:40.893Z,7.04
2022-12-25T16:05:42.657Z,7.04
2022-12-25T16:10:44.474Z,7.03
2022-12-25T16:15:53.135Z,7.03
2022-12-25T16:21:01.138Z,7.03
2022-12-25T16:26:06.870Z,7.01
2022-12-25T16:31:08.904Z,7.01
2022-12-25T16:36:11.571Z,7.01
2022-12-25T16:41:14.277Z,7.01
2022-12-25T16:46:18.787Z,7.01
2022-12-25T16:51:24.779Z,7.00
2022-12-25T16:56:30.738Z,6.99
2022-12-25T17:01:32.934Z,7.01
2022-12-25T17:06:34.957Z,6.98
2022-12-25T17:11:41.084Z,6.97
2022-12-25T17:16:42.969Z,6.98
2022-12-25T17:21:49.170Z,6.99
2022-12-25T17:26:53.365Z,7.01
2022-12-25T17:31:57.588Z,7.02
2022-12-25T17:36:59.488Z,7.04
2022-12-25T17:42:03.437Z,7.06
2022-12-25T17:47:07.714Z,7.05
2022-12-25T17:52:10.402Z,7.03
2022-12-25T17:57:15.052Z,7.04
2022-12-25T18:02:16.914Z,7.04
2022-12-25T18:07:21.073Z,7.06
2022-12-25T18:12:22.813Z,7.09
2022-12-25T18:17:25.650Z,7.10
2022-12-25T18:22:27.502Z,7.12
2022-12-25T18:27:29.214Z,7.10
2022-12-25T18:32:33.289Z,7.10
2022-12-25T18:37:40.062Z,7.09
2022-12-25T18:42:43.305Z,7.08
2022-12-25T18:47:47.859Z,7.08
2022-12-25T18:52:51.884Z,7.07
2022-12-25T18:57:59.637Z,7.04
2022-12-25T19:03:01.510Z,7.04
2022-12-25T19:08:07.103Z,7.05
2022-12-25T19:13:11.161Z,7.06
2022-12-25T19:18:12.958Z,7.06
2022-12-25T19:23:17.020Z,7.05
2022-12-25T19:28:21.302Z,7.08
2022-12-25T19:33:25.229Z,7.07
2022-12-25T19:38:29.492Z,7.04
2022-12-25T19:43:33.661Z,7.02
2022-12-25T19:48:35.536Z,7.00
2022-12-25T19:53:39.503Z,6.97
2022-12-25T19:58:41.233Z,6.95
2022-12-25T20:03:46.316Z,6.94
2022-12-25T20:08:59.189Z,6.95
2022-12-25T20:14:03.235Z,6.95
2022-12-25T20:19:08.009Z,6.95
2022-12-25T20:24:12.505Z,6.93
2022-12-25T20:29:15.011Z,6.95
2022-12-25T20:34:16.837Z,6.99
2022-12-25T20:39:20.586Z,6.99
2022-12-25T20:44:22.346Z,7.00
2022-12-25T20:49:27.870Z,7.01
2022-12-25T20:54:32.022Z,7.01
2022-12-25T20:59:37.603Z,7.00
2022-12-25T21:04:40.873Z,7.04
2022-12-25T21:09:45.515Z,7.03
2022-12-25T21:14:52.600Z,7.02
2022-12-25T21:19:54.317Z,7.00
2022-12-25T21:25:03.751Z,6.97
2022-12-25T21:30:14.996Z,6.94
2022-12-25T21:35:17.569Z,6.93
2022-12-25T21:40:21.584Z,6.88
2022-12-25T21:45:25.900Z,6.85
2022-12-25T21:50:48.918Z,6.81
2022-12-25T21:56:02.477Z,6.75
2022-12-25T22:01:04.445Z,6.70
2022-12-25T22:06:29.120Z,6.69
2022-12-25T22:11:49.239Z,6.67
2022-12-25T22:17:09.560Z,6.67
2022-12-25T22:22:24.298Z,6.67
2022-12-25T22:27:35.735Z,6.65
2022-12-25T22:32:39.683Z,6.64
2022-12-25T22:37:42.312Z,6.67
2022-12-25T22:42:44.428Z,6.73
2022-12-25T22:47:51.151Z,6.73
2022-12-25T22:53:00.124Z,6.74
2022-12-25T22:58:04.708Z,6.73
2022-12-25T23:03:09.035Z,6.73
2022-12-25T23:08:20.274Z,6.74
2022-12-25T23:13:40.620Z,6.75
2022-12-25T23:19:03.086Z,6.76
2022-12-25T23:24:24.169Z,6.78
2022-12-25T23:29:37.834Z,6.79
2022-12-25T23:34:46.040Z,6.81
2022-12-25T23:39:50.499Z,6.84
2022-12-25T23:44:53.001Z,6.87
2022-12-25T23:49:57.659Z,6.90
2022-12-25T23:54:59.393Z,6.88
